sensor_id;sensor_type;location;lat;lon;timestamp;pressure;altitude;pressure_sealevel;temperature;humidity
51759;BME280;66684;47.568;18.734;2023-02-04T00:01:40;99213.44;;;3.87;100.00
51759;BME280;66684;47.568;18.734;2023-02-04T00:04:05;99215.56;;;3.94;100.00
51759;BME280;66684;47.568;18.734;2023-02-04T00:06:31;99205.06;;;3.89;100.00
51759;BME280;66684;47.568;18.734;2023-02-04T00:08:57;99206.34;;;3.83;100.00
51759;BME280;66684;47.568;18.734;2023-02-04T00:11:23;99211.97;;;3.90;100.00
51759;BME280;66684;47.568;18.734;2023-02-04T00:13:49;99209.78;;;3.83;100.00
51759;BME280;66684;47.568;18.734;2023-02-04T00:16:15;99207.72;;;3.91;100.00
51759;BME280;66684;47.568;18.734;2023-02-04T00:18:41;99215.66;;;3.95;100.00
51759;BME280;66684;47.568;18.734;2023-02-04T00:21:07;99204.00;;;3.86;100.00
51759;BME280;66684;47.568;18.734;2023-02-04T00:23:32;99202.78;;;3.94;100.00
51759;BME280;66684;47.568;18.734;2023-02-04T00:25:58;99203.28;;;3.88;100.00
51759;BME280;66684;47.568;18.734;2023-02-04T00:28:24;99198.47;;;3.93;100.00
51759;BME280;66684;47.568;18.734;2023-02-04T00:30:50;99203.56;;;3.93;100.00
51759;BME280;66684;47.568;18.734;2023-02-04T00:33:16;99197.50;;;3.91;100.00
51759;BME280;66684;47.568;18.734;2023-02-04T00:35:42;99195.91;;;3.93;100.00
51759;BME280;66684;47.568;18.734;2023-02-04T00:38:08;99205.06;;;3.89;100.00
51759;BME280;66684;47.568;18.734;2023-02-04T00:40:34;99193.44;;;3.94;100.00
51759;BME280;66684;47.568;18.734;2023-02-04T00:42:59;99194.59;;;3.99;100.00
51759;BME280;66684;47.568;18.734;2023-02-04T00:45:25;99197.16;;;3.99;100.00
51759;BME280;66684;47.568;18.734;2023-02-04T00:47:51;99188.16;;;3.91;100.00
51759;BME280;66684;47.568;18.734;2023-02-04T00:50:17;99188.25;;;3.93;100.00
51759;BME280;66684;47.568;18.734;2023-02-04T00:52:43;99183.22;;;3.94;100.00
51759;BME280;66684;47.568;18.734;2023-02-04T00:55:09;99175.63;;;3.96;100.00
51759;BME280;66684;47.568;18.734;2023-02-04T00:57:37;99175.47;;;3.93;100.00
51759;BME280;66684;47.568;18.734;2023-02-04T01:00:04;99173.13;;;3.83;100.00
51759;BME280;66684;47.568;18.734;2023-02-04T01:02:31;99177.94;;;3.91;100.00
51759;BME280;66684;47.568;18.734;2023-02-04T01:04:57;99178.66;;;4.03;100.00
51759;BME280;66684;47.568;18.734;2023-02-04T01:07:22;99173.69;;;3.92;100.00
51759;BME280;66684;47.568;18.734;2023-02-04T01:09:48;99179.47;;;4.02;100.00
51759;BME280;66684;47.568;18.734;2023-02-04T01:12:14;99171.06;;;4.05;100.00
51759;BME280;66684;47.568;18.734;2023-02-04T01:14:40;99175.47;;;4.07;100.00
51759;BME280;66684;47.568;18.734;2023-02-04T01:17:06;99170.28;;;4.06;100.00
51759;BME280;66684;47.568;18.734;2023-02-04T01:19:32;99174.78;;;4.10;100.00
51759;BME280;66684;47.568;18.734;2023-02-04T01:21:58;99173.78;;;4.08;100.00
51759;BME280;66684;47.568;18.734;2023-02-04T01:24:24;99167.22;;;4.26;100.00
51759;BME280;66684;47.568;18.734;2023-02-04T01:26:50;99176.19;;;4.20;100.00
51759;BME280;66684;47.568;18.734;2023-02-04T01:29:16;99154.69;;;4.16;100.00
51759;BME280;66684;47.568;18.734;2023-02-04T01:31:42;99152.84;;;4.28;100.00
51759;BME280;66684;47.568;18.734;2023-02-04T01:34:08;99157.78;;;4.25;100.00
51759;BME280;66684;47.568;18.734;2023-02-04T01:36:34;99138.38;;;4.14;100.00
51759;BME280;66684;47.568;18.734;2023-02-04T01:38:59;99145.28;;;4.15;100.00
51759;BME280;66684;47.568;18.734;2023-02-04T01:41:26;99151.88;;;4.12;100.00
51759;BME280;66684;47.568;18.734;2023-02-04T01:43:52;99140.75;;;4.26;100.00
51759;BME280;66684;47.568;18.734;2023-02-04T01:46:18;99141.28;;;4.20;100.00
51759;BME280;66684;47.568;18.734;2023-02-04T01:48:44;99132.84;;;4.21;100.00
51759;BME280;66684;47.568;18.734;2023-02-04T01:51:13;99148.00;;;4.18;100.00
51759;BME280;66684;47.568;18.734;2023-02-04T01:53:40;99143.44;;;4.27;100.00
51759;BME280;66684;47.568;18.734;2023-02-04T01:56:26;99152.06;;;4.29;100.00
51759;BME280;66684;47.568;18.734;2023-02-04T01:58:55;99147.81;;;4.30;100.00
51759;BME280;66684;47.568;18.734;2023-02-04T02:01:41;99143.06;;;4.21;100.00
51759;BME280;66684;47.568;18.734;2023-02-04T02:04:17;99145.88;;;4.26;100.00
51759;BME280;66684;47.568;18.734;2023-02-04T02:06:47;99132.66;;;4.18;100.00
51759;BME280;66684;47.568;18.734;2023-02-04T02:09:14;99132.84;;;4.21;100.00
51759;BME280;66684;47.568;18.734;2023-02-04T02:11:40;99131.41;;;4.26;100.00
51759;BME280;66684;47.568;18.734;2023-02-04T02:14:06;99145.88;;;4.41;100.00
51759;BME280;66684;47.568;18.734;2023-02-04T02:16:33;99124.87;;;4.31;100.00
51759;BME280;66684;47.568;18.734;2023-02-04T02:18:58;99129.84;;;4.28;100.00
51759;BME280;66684;47.568;18.734;2023-02-04T02:21:39;99126.13;;;4.23;100.00
51759;BME280;66684;47.568;18.734;2023-02-04T02:24:25;99118.03;;;4.16;100.00
51759;BME280;66684;47.568;18.734;2023-02-04T02:26:52;99114.31;;;4.25;100.00
51759;BME280;66684;47.568;18.734;2023-02-04T02:29:19;99112.72;;;4.27;100.00
51759;BME280;66684;47.568;18.734;2023-02-04T02:31:45;99107.06;;;4.18;100.00
51759;BME280;66684;47.568;18.734;2023-02-04T02:34:11;99110.06;;;4.11;100.00
51759;BME280;66684;47.568;18.734;2023-02-04T02:36:37;99102.91;;;4.20;100.00
51759;BME280;66684;47.568;18.734;2023-02-04T02:39:03;99109.03;;;4.22;100.00
51759;BME280;66684;47.568;18.734;2023-02-04T02:41:29;99092.09;;;4.24;100.00
51759;BME280;66684;47.568;18.734;2023-02-04T02:43:56;99100.09;;;4.30;100.00
51759;BME280;66684;47.568;18.734;2023-02-04T02:46:22;99100.72;;;4.26;100.00
51759;BME280;66684;47.568;18.734;2023-02-04T02:48:48;99091.22;;;4.24;100.00
51759;BME280;66684;47.568;18.734;2023-02-04T02:51:14;99092.97;;;4.25;100.00
51759;BME280;66684;47.568;18.734;2023-02-04T02:53:39;99085.28;;;4.25;100.00
51759;BME280;66684;47.568;18.734;2023-02-04T02:56:06;99099.16;;;4.28;100.00
51759;BME280;66684;47.568;18.734;2023-02-04T02:58:33;99093.50;;;4.34;100.00
51759;BME280;66684;47.568;18.734;2023-02-04T03:01:04;99098.16;;;4.41;100.00
51759;BME280;66684;47.568;18.734;2023-02-04T03:03:33;99113.50;;;4.41;100.00
51759;BME280;66684;47.568;18.734;2023-02-04T03:06:13;99108.28;;;4.40;100.00
51759;BME280;66684;47.568;18.734;2023-02-04T03:08:41;99114.66;;;4.31;100.00
51759;BME280;66684;47.568;18.734;2023-02-04T03:11:08;99106.38;;;4.36;100.00
51759;BME280;66684;47.568;18.734;2023-02-04T03:13:35;99103.00;;;4.37;100.00
51759;BME280;66684;47.568;18.734;2023-02-04T03:16:02;99107.63;;;4.27;100.00
51759;BME280;66684;47.568;18.734;2023-02-04T03:18:29;99088.38;;;4.34;100.00
51759;BME280;66684;47.568;18.734;2023-02-04T03:20:56;99096.13;;;4.21;100.00
51759;BME280;66684;47.568;18.734;2023-02-04T03:23:23;99088.38;;;4.19;100.00
51759;BME280;66684;47.568;18.734;2023-02-04T03:25:50;99077.34;;;4.20;100.00
51759;BME280;66684;47.568;18.734;2023-02-04T03:28:16;99081.59;;;4.20;100.00
51759;BME280;66684;47.568;18.734;2023-02-04T03:30:42;99077.81;;;4.13;100.00
51759;BME280;66684;47.568;18.734;2023-02-04T03:33:09;99094.81;;;4.13;100.00
51759;BME280;66684;47.568;18.734;2023-02-04T03:35:35;99083.72;;;4.12;100.00
51759;BME280;66684;47.568;18.734;2023-02-04T03:38:01;99094.03;;;4.14;100.00
51759;BME280;66684;47.568;18.734;2023-02-04T03:40:27;99079.41;;;4.11;100.00
51759;BME280;66684;47.568;18.734;2023-02-04T03:42:54;99069.19;;;4.11;100.00
51759;BME280;66684;47.568;18.734;2023-02-04T03:45:20;99067.34;;;4.09;100.00
51759;BME280;66684;47.568;18.734;2023-02-04T03:47:46;99078.06;;;4.18;100.00
51759;BME280;66684;47.568;18.734;2023-02-04T03:50:12;99067.41;;;4.10;100.00
51759;BME280;66684;47.568;18.734;2023-02-04T03:52:38;99073.22;;;4.22;100.00
51759;BME280;66684;47.568;18.734;2023-02-04T03:55:05;99061.75;;;4.30;100.00
51759;BME280;66684;47.568;18.734;2023-02-04T03:57:31;99053.28;;;4.31;100.00
51759;BME280;66684;47.568;18.734;2023-02-04T03:59:56;99067.47;;;4.26;100.00
51759;BME280;66684;47.568;18.734;2023-02-04T04:02:22;99070.56;;;4.36;100.00
51759;BME280;66684;47.568;18.734;2023-02-04T04:04:48;99067.03;;;4.33;100.00
51759;BME280;66684;47.568;18.734;2023-02-04T04:07:14;99053.81;;;4.41;100.00
51759;BME280;66684;47.568;18.734;2023-02-04T04:09:40;99035.56;;;4.35;100.00
51759;BME280;66684;47.568;18.734;2023-02-04T04:12:06;99036.50;;;4.37;100.00
51759;BME280;66684;47.568;18.734;2023-02-04T04:14:32;99041.16;;;4.44;100.00
51759;BME280;66684;47.568;18.734;2023-02-04T04:16:58;99041.59;;;4.51;100.00
51759;BME280;66684;47.568;18.734;2023-02-04T04:19:23;99019.38;;;4.50;100.00
51759;BME280;66684;47.568;18.734;2023-02-04T04:21:49;99018.47;;;4.50;100.00
51759;BME280;66684;47.568;18.734;2023-02-04T04:24:15;99022.00;;;4.52;100.00
51759;BME280;66684;47.568;18.734;2023-02-04T04:26:41;99024.22;;;4.46;100.00
51759;BME280;66684;47.568;18.734;2023-02-04T04:29:07;99025.53;;;4.54;100.00
51759;BME280;66684;47.568;18.734;2023-02-04T04:31:33;99021.66;;;4.46;100.00
51759;BME280;66684;47.568;18.734;2023-02-04T04:33:59;98999.09;;;4.39;100.00
51759;BME280;66684;47.568;18.734;2023-02-04T04:36:26;99012.00;;;4.40;100.00
51759;BME280;66684;47.568;18.734;2023-02-04T04:38:52;99017.66;;;4.35;100.00
51759;BME280;66684;47.568;18.734;2023-02-04T04:41:18;99005.41;;;4.29;100.00
51759;BME280;66684;47.568;18.734;2023-02-04T04:43:44;98999.84;;;4.36;100.00
51759;BME280;66684;47.568;18.734;2023-02-04T04:46:09;98993.31;;;4.26;100.00
51759;BME280;66684;47.568;18.734;2023-02-04T04:48:35;99018.34;;;4.32;100.00
51759;BME280;66684;47.568;18.734;2023-02-04T04:51:01;99009.44;;;4.40;100.00
51759;BME280;66684;47.568;18.734;2023-02-04T04:53:28;99014.72;;;4.43;100.00
51759;BME280;66684;47.568;18.734;2023-02-04T04:55:53;99014.78;;;4.45;100.00
51759;BME280;66684;47.568;18.734;2023-02-04T04:58:19;99024.78;;;4.40;100.00
51759;BME280;66684;47.568;18.734;2023-02-04T05:00:45;99030.94;;;4.44;100.00
51759;BME280;66684;47.568;18.734;2023-02-04T05:03:11;99025.22;;;4.48;100.00
51759;BME280;66684;47.568;18.734;2023-02-04T05:05:37;99028.72;;;4.50;100.00
51759;BME280;66684;47.568;18.734;2023-02-04T05:08:08;99046.97;;;4.56;100.00
51759;BME280;66684;47.568;18.734;2023-02-04T05:10:40;99044.88;;;4.49;100.00
51759;BME280;66684;47.568;18.734;2023-02-04T05:13:07;99034.16;;;4.56;100.00
51759;BME280;66684;47.568;18.734;2023-02-04T05:15:33;99030.12;;;4.45;100.00
51759;BME280;66684;47.568;18.734;2023-02-04T05:17:59;99052.34;;;4.46;100.00
51759;BME280;66684;47.568;18.734;2023-02-04T05:20:25;99048.31;;;4.49;100.00
51759;BME280;66684;47.568;18.734;2023-02-04T05:22:51;99031.75;;;4.43;100.00
51759;BME280;66684;47.568;18.734;2023-02-04T05:25:17;99044.59;;;4.44;100.00
51759;BME280;66684;47.568;18.734;2023-02-04T05:27:43;99050.25;;;4.39;100.00
51759;BME280;66684;47.568;18.734;2023-02-04T05:30:11;99064.84;;;4.25;100.00
51759;BME280;66684;47.568;18.734;2023-02-04T05:32:37;99057.28;;;3.97;100.00
51759;BME280;66684;47.568;18.734;2023-02-04T05:35:04;99055.66;;;3.69;100.00
51759;BME280;66684;47.568;18.734;2023-02-04T05:37:30;99065.06;;;3.41;100.00
51759;BME280;66684;47.568;18.734;2023-02-04T05:39:56;99077.88;;;3.28;100.00
51759;BME280;66684;47.568;18.734;2023-02-04T05:42:22;99067.84;;;3.31;100.00
51759;BME280;66684;47.568;18.734;2023-02-04T05:44:48;99083.00;;;3.28;100.00
51759;BME280;66684;47.568;18.734;2023-02-04T05:47:14;99091.66;;;3.16;100.00
51759;BME280;66684;47.568;18.734;2023-02-04T05:49:40;99095.97;;;3.17;100.00
51759;BME280;66684;47.568;18.734;2023-02-04T05:52:06;99123.75;;;3.13;100.00
51759;BME280;66684;47.568;18.734;2023-02-04T05:54:32;99095.81;;;3.14;100.00
51759;BME280;66684;47.568;18.734;2023-02-04T05:56:58;99133.09;;;3.12;100.00
51759;BME280;66684;47.568;18.734;2023-02-04T05:59:24;99137.31;;;3.12;100.00
51759;BME280;66684;47.568;18.734;2023-02-04T06:01:50;99129.75;;;3.13;100.00
51759;BME280;66684;47.568;18.734;2023-02-04T06:04:16;99151.97;;;3.14;100.00
51759;BME280;66684;47.568;18.734;2023-02-04T06:06:42;99147.06;;;3.04;100.00
51759;BME280;66684;47.568;18.734;2023-02-04T06:09:09;99181.12;;;3.05;100.00
51759;BME280;66684;47.568;18.734;2023-02-04T06:11:35;99172.09;;;2.96;100.00
51759;BME280;66684;47.568;18.734;2023-02-04T06:14:01;99171.91;;;2.93;100.00
51759;BME280;66684;47.568;18.734;2023-02-04T06:16:27;99169.44;;;2.95;100.00
51759;BME280;66684;47.568;18.734;2023-02-04T06:18:53;99194.78;;;2.92;100.00
51759;BME280;66684;47.568;18.734;2023-02-04T06:21:19;99198.50;;;2.84;100.00
51759;BME280;66684;47.568;18.734;2023-02-04T06:23:45;99202.63;;;2.82;100.00
51759;BME280;66684;47.568;18.734;2023-02-04T06:26:11;99183.97;;;2.83;100.00
51759;BME280;66684;47.568;18.734;2023-02-04T06:28:37;99211.28;;;2.84;100.00
51759;BME280;66684;47.568;18.734;2023-02-04T06:31:03;99199.19;;;2.81;100.00
51759;BME280;66684;47.568;18.734;2023-02-04T06:33:29;99207.31;;;2.76;100.00
51759;BME280;66684;47.568;18.734;2023-02-04T06:35:55;99204.78;;;2.76;100.00
51759;BME280;66684;47.568;18.734;2023-02-04T06:38:21;99214.00;;;2.74;100.00
51759;BME280;66684;47.568;18.734;2023-02-04T06:40:47;99206.34;;;2.74;100.00
51759;BME280;66684;47.568;18.734;2023-02-04T06:43:15;99220.38;;;2.80;100.00
51759;BME280;66684;47.568;18.734;2023-02-04T06:45:41;99221.09;;;2.78;100.00
51759;BME280;66684;47.568;18.734;2023-02-04T06:48:06;99215.75;;;2.75;100.00
51759;BME280;66684;47.568;18.734;2023-02-04T06:50:32;99225.19;;;2.76;100.00
51759;BME280;66684;47.568;18.734;2023-02-04T06:52:58;99249.94;;;2.77;100.00
51759;BME280;66684;47.568;18.734;2023-02-04T06:55:24;99252.66;;;2.66;100.00
51759;BME280;66684;47.568;18.734;2023-02-04T06:57:50;99250.28;;;2.56;97.38
51759;BME280;66684;47.568;18.734;2023-02-04T07:00:16;99248.97;;;2.50;97.28
51759;BME280;66684;47.568;18.734;2023-02-04T07:02:42;99276.13;;;2.36;100.00
51759;BME280;66684;47.568;18.734;2023-02-04T07:05:08;99296.47;;;2.23;100.00
51759;BME280;66684;47.568;18.734;2023-02-04T07:07:34;99251.47;;;1.98;100.00
51759;BME280;66684;47.568;18.734;2023-02-04T07:10:00;99250.62;;;1.86;100.00
51759;BME280;66684;47.568;18.734;2023-02-04T07:12:26;99242.94;;;1.73;100.00
51759;BME280;66684;47.568;18.734;2023-02-04T07:14:52;99236.97;;;1.60;100.00
51759;BME280;66684;47.568;18.734;2023-02-04T07:17:18;99289.03;;;1.52;100.00
51759;BME280;66684;47.568;18.734;2023-02-04T07:19:43;99260.88;;;1.62;100.00
51759;BME280;66684;47.568;18.734;2023-02-04T07:22:09;99245.47;;;1.73;100.00
51759;BME280;66684;47.568;18.734;2023-02-04T07:24:35;99278.22;;;1.80;100.00
51759;BME280;66684;47.568;18.734;2023-02-04T07:27:01;99260.41;;;1.80;100.00
51759;BME280;66684;47.568;18.734;2023-02-04T07:29:27;99278.56;;;1.84;100.00
51759;BME280;66684;47.568;18.734;2023-02-04T07:31:53;99291.50;;;1.87;100.00
51759;BME280;66684;47.568;18.734;2023-02-04T07:34:19;99304.91;;;1.85;100.00
51759;BME280;66684;47.568;18.734;2023-02-04T07:36:46;99313.25;;;1.82;100.00
51759;BME280;66684;47.568;18.734;2023-02-04T07:39:12;99315.09;;;1.85;100.00
51759;BME280;66684;47.568;18.734;2023-02-04T07:41:37;99344.03;;;1.74;100.00
51759;BME280;66684;47.568;18.734;2023-02-04T07:44:03;99332.84;;;1.72;100.00
51759;BME280;66684;47.568;18.734;2023-02-04T07:46:30;99348.91;;;1.71;100.00
51759;BME280;66684;47.568;18.734;2023-02-04T07:48:56;99379.38;;;1.57;99.86
51759;BME280;66684;47.568;18.734;2023-02-04T07:51:22;99414.78;;;1.54;98.14
51759;BME280;66684;47.568;18.734;2023-02-04T07:53:48;99398.19;;;1.59;99.53
51759;BME280;66684;47.568;18.734;2023-02-04T07:56:13;99373.84;;;1.51;96.50
51759;BME280;66684;47.568;18.734;2023-02-04T07:58:39;99399.31;;;1.51;98.65
51759;BME280;66684;47.568;18.734;2023-02-04T08:01:05;99436.91;;;1.55;96.99
51759;BME280;66684;47.568;18.734;2023-02-04T08:03:31;99423.09;;;1.64;99.41
51759;BME280;66684;47.568;18.734;2023-02-04T08:05:57;99423.66;;;1.59;97.92
51759;BME280;66684;47.568;18.734;2023-02-04T08:08:23;99446.31;;;1.56;98.62
51759;BME280;66684;47.568;18.734;2023-02-04T08:10:49;99444.13;;;1.49;98.83
51759;BME280;66684;47.568;18.734;2023-02-04T08:13:15;99457.50;;;1.47;99.09
51759;BME280;66684;47.568;18.734;2023-02-04T08:15:40;99458.59;;;1.50;99.42
51759;BME280;66684;47.568;18.734;2023-02-04T08:18:06;99451.41;;;1.33;99.82
51759;BME280;66684;47.568;18.734;2023-02-04T08:20:32;99489.66;;;1.23;98.37
51759;BME280;66684;47.568;18.734;2023-02-04T08:22:58;99507.28;;;1.20;98.33
51759;BME280;66684;47.568;18.734;2023-02-04T08:25:24;99512.78;;;1.14;99.67
51759;BME280;66684;47.568;18.734;2023-02-04T08:27:50;99510.97;;;1.13;100.00
51759;BME280;66684;47.568;18.734;2023-02-04T08:30:16;99519.69;;;1.27;99.25
51759;BME280;66684;47.568;18.734;2023-02-04T08:32:42;99509.25;;;1.24;97.81
51759;BME280;66684;47.568;18.734;2023-02-04T08:35:08;99506.37;;;1.31;99.71
51759;BME280;66684;47.568;18.734;2023-02-04T08:37:34;99522.59;;;1.43;97.07
51759;BME280;66684;47.568;18.734;2023-02-04T08:40:00;99519.81;;;1.40;96.78
51759;BME280;66684;47.568;18.734;2023-02-04T08:42:26;99520.81;;;1.42;96.62
51759;BME280;66684;47.568;18.734;2023-02-04T08:44:52;99548.81;;;1.42;95.99
51759;BME280;66684;47.568;18.734;2023-02-04T08:47:18;99516.41;;;1.40;98.14
51759;BME280;66684;47.568;18.734;2023-02-04T08:49:43;99522.38;;;1.40;97.17
51759;BME280;66684;47.568;18.734;2023-02-04T08:52:09;99500.16;;;1.61;96.99
51759;BME280;66684;47.568;18.734;2023-02-04T08:54:35;99495.16;;;1.62;95.97
51759;BME280;66684;47.568;18.734;2023-02-04T08:57:01;99518.66;;;1.70;96.10
51759;BME280;66684;47.568;18.734;2023-02-04T08:59:28;99509.59;;;1.85;94.36
51759;BME280;66684;47.568;18.734;2023-02-04T09:01:54;99499.19;;;1.82;91.99
51759;BME280;66684;47.568;18.734;2023-02-04T09:04:21;99536.41;;;1.92;92.19
51759;BME280;66684;47.568;18.734;2023-02-04T09:06:49;99538.84;;;2.02;91.36
51759;BME280;66684;47.568;18.734;2023-02-04T09:09:15;99545.47;;;2.00;89.29
51759;BME280;66684;47.568;18.734;2023-02-04T09:11:41;99544.28;;;1.95;89.09
51759;BME280;66684;47.568;18.734;2023-02-04T09:14:08;99532.19;;;1.93;89.28
51759;BME280;66684;47.568;18.734;2023-02-04T09:16:34;99514.34;;;2.04;88.69
51759;BME280;66684;47.568;18.734;2023-02-04T09:19:00;99540.62;;;2.03;89.18
51759;BME280;66684;47.568;18.734;2023-02-04T09:21:29;99550.25;;;2.07;88.15
51759;BME280;66684;47.568;18.734;2023-02-04T09:23:55;99560.03;;;2.01;86.08
51759;BME280;66684;47.568;18.734;2023-02-04T09:26:21;99557.25;;;2.10;88.82
51759;BME280;66684;47.568;18.734;2023-02-04T09:28:47;99613.75;;;2.04;85.27
51759;BME280;66684;47.568;18.734;2023-02-04T09:31:14;99581.16;;;2.00;85.60
51759;BME280;66684;47.568;18.734;2023-02-04T09:33:40;99600.78;;;2.01;86.13
51759;BME280;66684;47.568;18.734;2023-02-04T09:36:06;99604.44;;;2.16;88.93
51759;BME280;66684;47.568;18.734;2023-02-04T09:38:32;99613.53;;;2.25;86.36
51759;BME280;66684;47.568;18.734;2023-02-04T09:41:03;99599.72;;;2.33;87.34
51759;BME280;66684;47.568;18.734;2023-02-04T09:43:33;99608.44;;;2.25;85.93
51759;BME280;66684;47.568;18.734;2023-02-04T09:45:59;99633.94;;;2.25;84.19
51759;BME280;66684;47.568;18.734;2023-02-04T09:48:25;99639.94;;;2.37;84.69
51759;BME280;66684;47.568;18.734;2023-02-04T09:50:52;99622.66;;;2.33;83.21
51759;BME280;66684;47.568;18.734;2023-02-04T09:53:26;99657.22;;;2.29;85.36
51759;BME280;66684;47.568;18.734;2023-02-04T09:55:51;99677.84;;;2.21;85.04
51759;BME280;66684;47.568;18.734;2023-02-04T09:58:20;99679.00;;;2.02;85.13
51759;BME280;66684;47.568;18.734;2023-02-04T10:00:51;99693.31;;;2.12;86.36
51759;BME280;66684;47.568;18.734;2023-02-04T10:03:21;99741.37;;;2.07;87.74
51759;BME280;66684;47.568;18.734;2023-02-04T10:05:48;99721.63;;;1.93;85.80
51759;BME280;66684;47.568;18.734;2023-02-04T10:08:17;99739.88;;;1.87;87.16
51759;BME280;66684;47.568;18.734;2023-02-04T10:10:45;99726.50;;;1.90;88.01
51759;BME280;66684;47.568;18.734;2023-02-04T10:13:16;99799.66;;;1.59;87.76
51759;BME280;66684;47.568;18.734;2023-02-04T10:15:45;99763.13;;;1.58;87.61
51759;BME280;66684;47.568;18.734;2023-02-04T10:18:18;99787.84;;;1.49;89.22
51759;BME280;66684;47.568;18.734;2023-02-04T10:20:46;99803.87;;;1.48;89.44
51759;BME280;66684;47.568;18.734;2023-02-04T10:23:12;99788.91;;;1.41;89.51
51759;BME280;66684;47.568;18.734;2023-02-04T10:25:37;99805.72;;;1.39;89.92
51759;BME280;66684;47.568;18.734;2023-02-04T10:28:03;99807.50;;;1.40;89.53
51759;BME280;66684;47.568;18.734;2023-02-04T10:30:36;99837.50;;;1.44;89.14
51759;BME280;66684;47.568;18.734;2023-02-04T10:33:14;99808.78;;;1.35;89.91
51759;BME280;66684;47.568;18.734;2023-02-04T10:35:45;99827.09;;;1.31;88.87
51759;BME280;66684;47.568;18.734;2023-02-04T10:38:11;99828.44;;;1.26;88.72
51759;BME280;66684;47.568;18.734;2023-02-04T10:40:37;99841.25;;;1.27;89.44
51759;BME280;66684;47.568;18.734;2023-02-04T10:43:23;99834.75;;;1.31;89.43
51759;BME280;66684;47.568;18.734;2023-02-04T10:46:01;99858.53;;;1.31;90.23
51759;BME280;66684;47.568;18.734;2023-02-04T10:48:27;99859.69;;;1.35;89.77
51759;BME280;66684;47.568;18.734;2023-02-04T10:50:55;99864.78;;;1.35;89.67
51759;BME280;66684;47.568;18.734;2023-02-04T10:53:24;99871.75;;;1.38;89.46
51759;BME280;66684;47.568;18.734;2023-02-04T10:56:18;99901.25;;;1.56;89.35
51759;BME280;66684;47.568;18.734;2023-02-04T10:58:45;99883.25;;;1.75;87.52
51759;BME280;66684;47.568;18.734;2023-02-04T11:01:14;99868.00;;;1.97;87.22
51759;BME280;66684;47.568;18.734;2023-02-04T11:03:41;99873.69;;;2.04;84.95
51759;BME280;66684;47.568;18.734;2023-02-04T11:06:12;99895.09;;;2.28;86.87
51759;BME280;66684;47.568;18.734;2023-02-04T11:08:40;99981.13;;;2.31;83.01
51759;BME280;66684;47.568;18.734;2023-02-04T11:11:15;99940.44;;;2.10;81.33
51759;BME280;66684;47.568;18.734;2023-02-04T11:18:45;99957.59;;;2.23;83.02
51759;BME280;66684;47.568;18.734;2023-02-04T11:23:48;99963.84;;;2.16;83.76
51759;BME280;66684;47.568;18.734;2023-02-04T11:26:31;100006.94;;;2.13;80.43
51759;BME280;66684;47.568;18.734;2023-02-04T11:34:01;100024.25;;;2.17;79.75
51759;BME280;66684;47.568;18.734;2023-02-04T11:36:28;100024.25;;;2.28;81.32
51759;BME280;66684;47.568;18.734;2023-02-04T11:38:55;100023.28;;;2.37;79.02
51759;BME280;66684;47.568;18.734;2023-02-04T11:41:27;100053.75;;;2.46;79.76
51759;BME280;66684;47.568;18.734;2023-02-04T11:43:56;100041.53;;;2.42;77.96
51759;BME280;66684;47.568;18.734;2023-02-04T11:46:25;100042.59;;;2.24;76.47
51759;BME280;66684;47.568;18.734;2023-02-04T11:48:53;100069.56;;;2.42;78.25
51759;BME280;66684;47.568;18.734;2023-02-04T11:51:22;100059.97;;;2.50;75.19
51759;BME280;66684;47.568;18.734;2023-02-04T11:53:51;100061.25;;;2.44;75.76
51759;BME280;66684;47.568;18.734;2023-02-04T11:56:18;100059.88;;;2.38;76.54
51759;BME280;66684;47.568;18.734;2023-02-04T11:58:45;100089.47;;;2.46;77.87
51759;BME280;66684;47.568;18.734;2023-02-04T12:01:28;100091.25;;;2.47;77.77
51759;BME280;66684;47.568;18.734;2023-02-04T12:04:02;100122.91;;;2.39;78.10
51759;BME280;66684;47.568;18.734;2023-02-04T12:06:30;100105.78;;;2.38;75.74
51759;BME280;66684;47.568;18.734;2023-02-04T12:09:19;100133.34;;;2.42;74.84
51759;BME280;66684;47.568;18.734;2023-02-04T12:12:05;100117.78;;;2.39;75.78
51759;BME280;66684;47.568;18.734;2023-02-04T12:14:34;100136.16;;;2.35;74.71
51759;BME280;66684;47.568;18.734;2023-02-04T12:17:00;100146.56;;;2.48;75.32
51759;BME280;66684;47.568;18.734;2023-02-04T12:19:26;100173.63;;;2.46;74.91
51759;BME280;66684;47.568;18.734;2023-02-04T12:21:52;100164.81;;;2.42;74.89
51759;BME280;66684;47.568;18.734;2023-02-04T12:24:19;100174.88;;;2.51;73.84
51759;BME280;66684;47.568;18.734;2023-02-04T12:26:45;100157.56;;;2.37;72.50
51759;BME280;66684;47.568;18.734;2023-02-04T12:29:11;100153.44;;;2.59;71.99
51759;BME280;66684;47.568;18.734;2023-02-04T12:31:37;100158.06;;;2.43;70.42
51759;BME280;66684;47.568;18.734;2023-02-04T12:34:03;100164.59;;;2.29;69.20
51759;BME280;66684;47.568;18.734;2023-02-04T12:36:29;100154.78;;;2.24;69.83
51759;BME280;66684;47.568;18.734;2023-02-04T12:38:56;100183.97;;;2.07;69.43
51759;BME280;66684;47.568;18.734;2023-02-04T12:41:25;100170.34;;;1.96;69.21
51759;BME280;66684;47.568;18.734;2023-02-04T12:43:51;100183.59;;;2.12;72.35
51759;BME280;66684;47.568;18.734;2023-02-04T12:46:19;100191.53;;;1.95;73.37
51759;BME280;66684;47.568;18.734;2023-02-04T12:48:45;100202.97;;;1.90;76.12
51759;BME280;66684;47.568;18.734;2023-02-04T12:51:10;100206.41;;;1.91;73.55
51759;BME280;66684;47.568;18.734;2023-02-04T12:53:36;100183.09;;;1.86;73.53
51759;BME280;66684;47.568;18.734;2023-02-04T12:56:02;100239.41;;;1.89;75.19
51759;BME280;66684;47.568;18.734;2023-02-04T12:58:28;100216.84;;;1.94;75.35
51759;BME280;66684;47.568;18.734;2023-02-04T13:00:54;100228.44;;;2.00;74.98
51759;BME280;66684;47.568;18.734;2023-02-04T13:03:21;100233.53;;;2.00;74.44
51759;BME280;66684;47.568;18.734;2023-02-04T13:05:48;100235.44;;;1.93;74.12